sensor_id;sensor_type;location;lat;lon;timestamp;P1;durP1;ratioP1;P2;durP2;ratioP2
60006;SDS011;45863;50.336;3.536;2022-08-03T00:01:15;5.60;;;2.17;;
60006;SDS011;45863;50.336;3.536;2022-08-03T00:03:40;6.47;;;2.80;;
60006;SDS011;45863;50.336;3.536;2022-08-03T00:06:06;5.67;;;2.13;;
60006;SDS011;45863;50.336;3.536;2022-08-03T00:08:31;4.40;;;2.27;;
60006;SDS011;45863;50.336;3.536;2022-08-03T00:10:56;7.83;;;2.83;;
60006;SDS011;45863;50.336;3.536;2022-08-03T00:13:21;7.10;;;2.40;;
60006;SDS011;45863;50.336;3.536;2022-08-03T00:15:46;7.25;;;2.47;;
60006;SDS011;45863;50.336;3.536;2022-08-03T00:18:12;8.43;;;2.40;;
60006;SDS011;45863;50.336;3.536;2022-08-03T00:20:37;8.80;;;3.40;;
60006;SDS011;45863;50.336;3.536;2022-08-03T00:23:03;4.65;;;2.65;;
60006;SDS011;45863;50.336;3.536;2022-08-03T00:25:28;7.57;;;2.80;;
60006;SDS011;45863;50.336;3.536;2022-08-03T00:27:53;8.17;;;2.63;;
60006;SDS011;45863;50.336;3.536;2022-08-03T00:30:19;7.67;;;2.80;;
60006;SDS011;45863;50.336;3.536;2022-08-03T00:32:44;8.70;;;2.70;;
60006;SDS011;45863;50.336;3.536;2022-08-03T00:35:09;6.38;;;2.72;;
60006;SDS011;45863;50.336;3.536;2022-08-03T00:37:35;8.07;;;2.35;;
60006;SDS011;45863;50.336;3.536;2022-08-03T00:40:01;8.73;;;2.73;;
60006;SDS011;45863;50.336;3.536;2022-08-03T00:42:26;9.00;;;2.40;;
60006;SDS011;45863;50.336;3.536;2022-08-03T00:44:51;9.13;;;2.60;;
60006;SDS011;45863;50.336;3.536;2022-08-03T00:47:16;6.83;;;2.30;;
60006;SDS011;45863;50.336;3.536;2022-08-03T00:49:41;12.00;;;2.60;;
60006;SDS011;45863;50.336;3.536;2022-08-03T00:52:07;8.18;;;2.50;;
60006;SDS011;45863;50.336;3.536;2022-08-03T00:54:33;10.30;;;3.08;;
60006;SDS011;45863;50.336;3.536;2022-08-03T00:56:59;7.90;;;2.40;;
60006;SDS011;45863;50.336;3.536;2022-08-03T00:59:24;7.53;;;3.30;;
60006;SDS011;45863;50.336;3.536;2022-08-03T01:01:50;7.38;;;2.75;;
60006;SDS011;45863;50.336;3.536;2022-08-03T01:04:15;9.53;;;2.87;;
60006;SDS011;45863;50.336;3.536;2022-08-03T01:07:47;8.63;;;3.10;;
60006;SDS011;45863;50.336;3.536;2022-08-03T01:12:12;6.72;;;2.58;;
60006;SDS011;45863;50.336;3.536;2022-08-03T01:14:53;6.97;;;2.65;;
60006;SDS011;45863;50.336;3.536;2022-08-03T01:25:09;10.63;;;2.78;;
60006;SDS011;45863;50.336;3.536;2022-08-03T01:27:54;6.32;;;2.10;;
60006;SDS011;45863;50.336;3.536;2022-08-03T01:30:21;6.88;;;2.72;;
60006;SDS011;45863;50.336;3.536;2022-08-03T01:32:57;8.90;;;2.65;;
60006;SDS011;45863;50.336;3.536;2022-08-03T01:35:28;10.05;;;2.92;;
60006;SDS011;45863;50.336;3.536;2022-08-03T01:38:03;6.90;;;2.72;;
60006;SDS011;45863;50.336;3.536;2022-08-03T01:40:30;7.93;;;3.00;;
60006;SDS011;45863;50.336;3.536;2022-08-03T01:42:56;10.85;;;3.33;;
60006;SDS011;45863;50.336;3.536;2022-08-03T01:45:23;7.72;;;2.67;;
60006;SDS011;45863;50.336;3.536;2022-08-03T01:47:49;6.88;;;2.63;;
60006;SDS011;45863;50.336;3.536;2022-08-03T01:50:16;11.13;;;2.78;;
60006;SDS011;45863;50.336;3.536;2022-08-03T01:52:43;7.63;;;3.08;;
60006;SDS011;45863;50.336;3.536;2022-08-03T01:55:09;5.80;;;2.83;;
60006;SDS011;45863;50.336;3.536;2022-08-03T01:57:35;9.45;;;2.92;;
60006;SDS011;45863;50.336;3.536;2022-08-03T02:00:02;7.80;;;2.92;;
60006;SDS011;45863;50.336;3.536;2022-08-03T02:02:28;6.63;;;2.60;;
60006;SDS011;45863;50.336;3.536;2022-08-03T02:04:54;10.60;;;3.00;;
60006;SDS011;45863;50.336;3.536;2022-08-03T02:07:20;7.45;;;3.22;;
60006;SDS011;45863;50.336;3.536;2022-08-03T02:09:48;9.10;;;3.08;;
60006;SDS011;45863;50.336;3.536;2022-08-03T02:12:15;7.78;;;2.50;;
60006;SDS011;45863;50.336;3.536;2022-08-03T02:14:42;11.00;;;2.50;;
60006;SDS011;45863;50.336;3.536;2022-08-03T02:17:07;9.38;;;3.08;;
60006;SDS011;45863;50.336;3.536;2022-08-03T02:19:33;10.10;;;2.95;;
60006;SDS011;45863;50.336;3.536;2022-08-03T02:21:59;9.00;;;3.10;;
60006;SDS011;45863;50.336;3.536;2022-08-03T02:24:24;11.35;;;2.97;;
60006;SDS011;45863;50.336;3.536;2022-08-03T02:26:50;12.10;;;3.53;;
60006;SDS011;45863;50.336;3.536;2022-08-03T02:29:17;7.90;;;2.88;;
60006;SDS011;45863;50.336;3.536;2022-08-03T02:31:44;7.53;;;2.75;;
60006;SDS011;45863;50.336;3.536;2022-08-03T02:34:13;10.38;;;2.67;;
60006;SDS011;45863;50.336;3.536;2022-08-03T02:36:40;9.77;;;3.05;;
60006;SDS011;45863;50.336;3.536;2022-08-03T02:39:06;8.73;;;3.00;;
60006;SDS011;45863;50.336;3.536;2022-08-03T02:41:40;7.82;;;3.40;;
60006;SDS011;45863;50.336;3.536;2022-08-03T02:44:07;8.07;;;3.40;;
60006;SDS011;45863;50.336;3.536;2022-08-03T02:46:32;10.25;;;2.78;;
60006;SDS011;45863;50.336;3.536;2022-08-03T02:49:00;7.35;;;2.78;;
60006;SDS011;45863;50.336;3.536;2022-08-03T02:51:27;8.82;;;2.80;;
60006;SDS011;45863;50.336;3.536;2022-08-03T02:53:54;12.20;;;2.85;;
60006;SDS011;45863;50.336;3.536;2022-08-03T02:56:20;7.90;;;2.78;;
60006;SDS011;45863;50.336;3.536;2022-08-03T02:58:46;7.18;;;2.83;;
60006;SDS011;45863;50.336;3.536;2022-08-03T03:01:13;10.95;;;3.35;;
60006;SDS011;45863;50.336;3.536;2022-08-03T03:03:39;7.68;;;2.92;;
60006;SDS011;45863;50.336;3.536;2022-08-03T03:06:04;8.95;;;2.72;;
60006;SDS011;45863;50.336;3.536;2022-08-03T03:08:30;7.35;;;2.72;;
60006;SDS011;45863;50.336;3.536;2022-08-03T03:10:57;8.98;;;3.05;;
60006;SDS011;45863;50.336;3.536;2022-08-03T03:13:22;11.65;;;3.10;;
60006;SDS011;45863;50.336;3.536;2022-08-03T03:15:48;13.30;;;2.58;;
60006;SDS011;45863;50.336;3.536;2022-08-03T03:18:15;7.97;;;2.95;;
60006;SDS011;45863;50.336;3.536;2022-08-03T03:20:40;13.30;;;4.13;;
60006;SDS011;45863;50.336;3.536;2022-08-03T03:23:06;7.75;;;2.65;;
60006;SDS011;45863;50.336;3.536;2022-08-03T03:25:33;13.60;;;2.60;;
60006;SDS011;45863;50.336;3.536;2022-08-03T03:27:58;9.57;;;2.70;;
60006;SDS011;45863;50.336;3.536;2022-08-03T03:30:24;12.32;;;3.42;;
60006;SDS011;45863;50.336;3.536;2022-08-03T03:32:49;7.72;;;2.63;;
60006;SDS011;45863;50.336;3.536;2022-08-03T03:35:14;7.70;;;2.83;;
60006;SDS011;45863;50.336;3.536;2022-08-03T03:37:40;9.57;;;3.13;;
60006;SDS011;45863;50.336;3.536;2022-08-03T03:40:06;8.38;;;3.17;;
60006;SDS011;45863;50.336;3.536;2022-08-03T03:42:32;10.80;;;3.17;;
60006;SDS011;45863;50.336;3.536;2022-08-03T03:44:58;7.60;;;3.10;;
60006;SDS011;45863;50.336;3.536;2022-08-03T03:47:23;9.82;;;2.83;;
60006;SDS011;45863;50.336;3.536;2022-08-03T03:49:48;11.90;;;3.25;;
60006;SDS011;45863;50.336;3.536;2022-08-03T03:52:14;11.93;;;3.13;;
60006;SDS011;45863;50.336;3.536;2022-08-03T03:54:41;9.43;;;2.70;;
60006;SDS011;45863;50.336;3.536;2022-08-03T03:57:06;8.93;;;3.40;;
60006;SDS011;45863;50.336;3.536;2022-08-03T03:59:32;11.95;;;3.88;;
60006;SDS011;45863;50.336;3.536;2022-08-03T04:01:57;8.07;;;2.60;;
60006;SDS011;45863;50.336;3.536;2022-08-03T04:04:22;11.68;;;2.85;;
60006;SDS011;45863;50.336;3.536;2022-08-03T04:07:06;9.43;;;2.83;;
60006;SDS011;45863;50.336;3.536;2022-08-03T04:09:50;10.35;;;2.90;;
60006;SDS011;45863;50.336;3.536;2022-08-03T04:12:34;8.15;;;2.58;;
60006;SDS011;45863;50.336;3.536;2022-08-03T04:15:00;11.30;;;3.10;;
60006;SDS011;45863;50.336;3.536;2022-08-03T04:17:27;10.70;;;2.45;;
60006;SDS011;45863;50.336;3.536;2022-08-03T04:19:53;11.10;;;3.40;;
60006;SDS011;45863;50.336;3.536;2022-08-03T04:22:20;12.07;;;2.70;;
60006;SDS011;45863;50.336;3.536;2022-08-03T04:24:54;11.20;;;2.97;;
60006;SDS011;45863;50.336;3.536;2022-08-03T04:27:24;9.30;;;2.65;;
60006;SDS011;45863;50.336;3.536;2022-08-03T04:29:50;9.05;;;2.85;;
60006;SDS011;45863;50.336;3.536;2022-08-03T04:32:16;12.88;;;2.83;;
60006;SDS011;45863;50.336;3.536;2022-08-03T04:34:44;7.55;;;2.70;;
60006;SDS011;45863;50.336;3.536;2022-08-03T04:37:10;10.02;;;2.63;;
60006;SDS011;45863;50.336;3.536;2022-08-03T04:39:36;9.13;;;3.15;;
60006;SDS011;45863;50.336;3.536;2022-08-03T04:42:03;9.95;;;2.67;;
60006;SDS011;45863;50.336;3.536;2022-08-03T04:44:30;7.20;;;2.63;;
60006;SDS011;45863;50.336;3.536;2022-08-03T04:46:59;12.15;;;2.85;;
60006;SDS011;45863;50.336;3.536;2022-08-03T04:49:24;8.68;;;2.47;;
60006;SDS011;45863;50.336;3.536;2022-08-03T04:51:50;6.00;;;2.50;;
60006;SDS011;45863;50.336;3.536;2022-08-03T04:54:16;9.57;;;2.40;;
60006;SDS011;45863;50.336;3.536;2022-08-03T04:56:42;7.88;;;3.05;;
60006;SDS011;45863;50.336;3.536;2022-08-03T04:59:07;7.15;;;2.10;;
60006;SDS011;45863;50.336;3.536;2022-08-03T05:01:33;7.53;;;2.95;;
60006;SDS011;45863;50.336;3.536;2022-08-03T05:03:58;10.23;;;2.80;;
60006;SDS011;45863;50.336;3.536;2022-08-03T05:06:24;9.45;;;2.60;;
60006;SDS011;45863;50.336;3.536;2022-08-03T05:08:49;5.63;;;2.67;;
60006;SDS011;45863;50.336;3.536;2022-08-03T05:11:14;13.07;;;3.00;;
60006;SDS011;45863;50.336;3.536;2022-08-03T05:13:40;8.25;;;2.50;;
60006;SDS011;45863;50.336;3.536;2022-08-03T05:16:05;12.97;;;2.90;;
60006;SDS011;45863;50.336;3.536;2022-08-03T05:18:30;6.57;;;2.63;;
60006;SDS011;45863;50.336;3.536;2022-08-03T05:20:56;9.02;;;2.88;;
60006;SDS011;45863;50.336;3.536;2022-08-03T05:23:21;8.30;;;2.80;;
60006;SDS011;45863;50.336;3.536;2022-08-03T05:25:46;15.57;;;3.00;;
60006;SDS011;45863;50.336;3.536;2022-08-03T05:28:11;8.40;;;2.80;;
60006;SDS011;45863;50.336;3.536;2022-08-03T05:30:37;7.83;;;2.47;;
60006;SDS011;45863;50.336;3.536;2022-08-03T05:33:02;9.60;;;3.05;;
60006;SDS011;45863;50.336;3.536;2022-08-03T05:35:28;13.57;;;4.05;;
60006;SDS011;45863;50.336;3.536;2022-08-03T05:37:53;10.13;;;3.35;;
60006;SDS011;45863;50.336;3.536;2022-08-03T05:40:18;7.93;;;2.63;;
60006;SDS011;45863;50.336;3.536;2022-08-03T05:42:44;6.85;;;2.83;;
60006;SDS011;45863;50.336;3.536;2022-08-03T05:45:09;10.30;;;3.50;;
60006;SDS011;45863;50.336;3.536;2022-08-03T05:47:45;5.55;;;2.50;;
60006;SDS011;45863;50.336;3.536;2022-08-03T05:50:11;7.03;;;2.72;;
60006;SDS011;45863;50.336;3.536;2022-08-03T05:52:37;6.43;;;2.80;;
60006;SDS011;45863;50.336;3.536;2022-08-03T05:55:03;8.25;;;3.60;;
60006;SDS011;45863;50.336;3.536;2022-08-03T05:57:28;10.38;;;3.53;;
60006;SDS011;45863;50.336;3.536;2022-08-03T05:59:53;13.60;;;3.20;;
60006;SDS011;45863;50.336;3.536;2022-08-03T06:02:18;6.87;;;2.90;;
60006;SDS011;45863;50.336;3.536;2022-08-03T06:04:44;11.10;;;3.10;;
60006;SDS011;45863;50.336;3.536;2022-08-03T06:07:09;7.53;;;3.05;;
60006;SDS011;45863;50.336;3.536;2022-08-03T06:09:34;7.20;;;3.08;;
60006;SDS011;45863;50.336;3.536;2022-08-03T06:11:59;7.20;;;3.30;;
60006;SDS011;45863;50.336;3.536;2022-08-03T06:14:25;7.50;;;2.97;;
60006;SDS011;45863;50.336;3.536;2022-08-03T06:16:50;6.87;;;3.00;;
60006;SDS011;45863;50.336;3.536;2022-08-03T06:19:15;9.77;;;3.40;;
60006;SDS011;45863;50.336;3.536;2022-08-03T06:21:40;9.97;;;2.63;;
60006;SDS011;45863;50.336;3.536;2022-08-03T06:24:05;9.97;;;3.07;;
60006;SDS011;45863;50.336;3.536;2022-08-03T06:26:31;9.50;;;3.10;;
60006;SDS011;45863;50.336;3.536;2022-08-03T06:28:56;8.43;;;2.65;;
60006;SDS011;45863;50.336;3.536;2022-08-03T06:31:22;7.68;;;2.60;;
60006;SDS011;45863;50.336;3.536;2022-08-03T06:33:49;7.63;;;2.47;;
60006;SDS011;45863;50.336;3.536;2022-08-03T06:36:14;7.97;;;2.37;;
60006;SDS011;45863;50.336;3.536;2022-08-03T06:38:40;7.03;;;2.57;;
60006;SDS011;45863;50.336;3.536;2022-08-03T06:41:05;7.73;;;2.10;;
60006;SDS011;45863;50.336;3.536;2022-08-03T06:43:30;7.00;;;2.70;;
60006;SDS011;45863;50.336;3.536;2022-08-03T06:45:55;11.52;;;2.35;;
60006;SDS011;45863;50.336;3.536;2022-08-03T06:48:20;7.70;;;2.00;;
60006;SDS011;45863;50.336;3.536;2022-08-03T06:50:46;8.52;;;2.58;;
60006;SDS011;45863;50.336;3.536;2022-08-03T06:53:11;7.93;;;2.40;;
60006;SDS011;45863;50.336;3.536;2022-08-03T06:55:36;8.63;;;2.00;;
60006;SDS011;45863;50.336;3.536;2022-08-03T06:58:02;9.13;;;2.10;;
60006;SDS011;45863;50.336;3.536;2022-08-03T07:00:27;7.93;;;1.92;;
60006;SDS011;45863;50.336;3.536;2022-08-03T07:02:52;7.82;;;1.80;;
60006;SDS011;45863;50.336;3.536;2022-08-03T07:05:18;5.93;;;2.15;;
60006;SDS011;45863;50.336;3.536;2022-08-03T07:07:43;8.27;;;1.77;;
60006;SDS011;45863;50.336;3.536;2022-08-03T07:10:08;7.00;;;1.83;;
60006;SDS011;45863;50.336;3.536;2022-08-03T07:12:35;6.78;;;1.60;;
60006;SDS011;45863;50.336;3.536;2022-08-03T07:15:01;9.27;;;1.85;;
60006;SDS011;45863;50.336;3.536;2022-08-03T07:17:27;6.93;;;1.90;;
60006;SDS011;45863;50.336;3.536;2022-08-03T07:19:52;8.70;;;2.25;;
60006;SDS011;45863;50.336;3.536;2022-08-03T07:22:17;7.27;;;1.73;;
60006;SDS011;45863;50.336;3.536;2022-08-03T07:24:43;7.93;;;2.20;;
60006;SDS011;45863;50.336;3.536;2022-08-03T07:27:08;9.55;;;2.10;;
60006;SDS011;45863;50.336;3.536;2022-08-03T07:29:34;5.20;;;1.50;;
60006;SDS011;45863;50.336;3.536;2022-08-03T07:31:59;7.35;;;1.80;;
60006;SDS011;45863;50.336;3.536;2022-08-03T07:34:25;5.85;;;1.90;;
60006;SDS011;45863;50.336;3.536;2022-08-03T07:36:50;7.70;;;2.10;;
60006;SDS011;45863;50.336;3.536;2022-08-03T07:39:15;9.93;;;2.00;;
60006;SDS011;45863;50.336;3.536;2022-08-03T07:41:40;7.67;;;1.63;;
60006;SDS011;45863;50.336;3.536;2022-08-03T07:44:06;9.33;;;2.00;;
60006;SDS011;45863;50.336;3.536;2022-08-03T07:46:31;8.07;;;1.77;;
60006;SDS011;45863;50.336;3.536;2022-08-03T07:48:56;7.13;;;1.60;;
60006;SDS011;45863;50.336;3.536;2022-08-03T07:51:22;5.80;;;1.40;;
60006;SDS011;45863;50.336;3.536;2022-08-03T07:53:47;7.00;;;1.53;;
60006;SDS011;45863;50.336;3.536;2022-08-03T07:56:12;7.93;;;1.80;;
60006;SDS011;45863;50.336;3.536;2022-08-03T07:58:38;6.35;;;1.50;;
60006;SDS011;45863;50.336;3.536;2022-08-03T08:01:03;6.70;;;1.57;;
60006;SDS011;45863;50.336;3.536;2022-08-03T08:03:28;12.87;;;2.20;;
60006;SDS011;45863;50.336;3.536;2022-08-03T08:05:53;7.97;;;2.00;;
60006;SDS011;45863;50.336;3.536;2022-08-03T08:08:19;8.85;;;1.40;;
60006;SDS011;45863;50.336;3.536;2022-08-03T08:10:45;11.27;;;2.10;;
60006;SDS011;45863;50.336;3.536;2022-08-03T08:13:10;9.48;;;1.80;;
60006;SDS011;45863;50.336;3.536;2022-08-03T08:15:35;8.77;;;1.83;;
60006;SDS011;45863;50.336;3.536;2022-08-03T08:18:00;7.20;;;1.70;;
60006;SDS011;45863;50.336;3.536;2022-08-03T08:20:27;7.43;;;1.80;;
60006;SDS011;45863;50.336;3.536;2022-08-03T08:22:54;7.50;;;1.40;;
60006;SDS011;45863;50.336;3.536;2022-08-03T08:25:19;6.68;;;1.70;;
60006;SDS011;45863;50.336;3.536;2022-08-03T08:27:48;9.07;;;1.40;;
60006;SDS011;45863;50.336;3.536;2022-08-03T08:30:14;7.45;;;1.50;;
60006;SDS011;45863;50.336;3.536;2022-08-03T08:32:40;11.30;;;1.83;;
60006;SDS011;45863;50.336;3.536;2022-08-03T08:35:05;8.13;;;1.60;;
60006;SDS011;45863;50.336;3.536;2022-08-03T08:37:31;5.28;;;1.50;;
60006;SDS011;45863;50.336;3.536;2022-08-03T08:39:56;7.07;;;1.67;;
60006;SDS011;45863;50.336;3.536;2022-08-03T08:42:21;6.67;;;1.70;;
60006;SDS011;45863;50.336;3.536;2022-08-03T08:44:47;5.87;;;1.60;;
60006;SDS011;45863;50.336;3.536;2022-08-03T08:47:13;6.60;;;1.58;;
60006;SDS011;45863;50.336;3.536;2022-08-03T08:49:38;5.30;;;1.50;;
60006;SDS011;45863;50.336;3.536;2022-08-03T08:52:04;6.35;;;1.33;;
60006;SDS011;45863;50.336;3.536;2022-08-03T08:54:30;4.95;;;1.50;;
60006;SDS011;45863;50.336;3.536;2022-08-03T08:56:57;6.78;;;1.15;;
60006;SDS011;45863;50.336;3.536;2022-08-03T08:59:25;5.45;;;1.17;;
60006;SDS011;45863;50.336;3.536;2022-08-03T09:01:55;4.35;;;1.10;;
60006;SDS011;45863;50.336;3.536;2022-08-03T09:04:20;5.18;;;1.35;;
60006;SDS011;45863;50.336;3.536;2022-08-03T09:06:45;9.30;;;1.70;;
60006;SDS011;45863;50.336;3.536;2022-08-03T09:09:11;8.10;;;1.23;;
60006;SDS011;45863;50.336;3.536;2022-08-03T09:11:36;4.80;;;1.60;;
60006;SDS011;45863;50.336;3.536;2022-08-03T09:14:01;9.50;;;1.50;;
60006;SDS011;45863;50.336;3.536;2022-08-03T09:16:26;11.60;;;1.80;;
60006;SDS011;45863;50.336;3.536;2022-08-03T09:18:52;7.07;;;1.40;;
60006;SDS011;45863;50.336;3.536;2022-08-03T09:23:46;8.70;;;1.83;;
60006;SDS011;45863;50.336;3.536;2022-08-03T09:26:13;4.70;;;1.58;;
60006;SDS011;45863;50.336;3.536;2022-08-03T09:28:43;7.28;;;1.48;;
60006;SDS011;45863;50.336;3.536;2022-08-03T09:31:08;6.70;;;1.57;;
60006;SDS011;45863;50.336;3.536;2022-08-03T09:33:34;5.93;;;1.80;;
60006;SDS011;45863;50.336;3.536;2022-08-03T09:36:10;6.00;;;1.80;;
60006;SDS011;45863;50.336;3.536;2022-08-03T09:39:02;5.72;;;1.70;;
60006;SDS011;45863;50.336;3.536;2022-08-03T09:41:30;10.32;;;1.58;;
60006;SDS011;45863;50.336;3.536;2022-08-03T09:43:55;6.17;;;1.50;;
60006;SDS011;45863;50.336;3.536;2022-08-03T09:46:21;8.07;;;1.65;;
60006;SDS011;45863;50.336;3.536;2022-08-03T09:48:46;8.05;;;1.48;;
60006;SDS011;45863;50.336;3.536;2022-08-03T09:51:11;5.20;;;1.33;;
60006;SDS011;45863;50.336;3.536;2022-08-03T09:53:42;4.43;;;1.20;;
60006;SDS011;45863;50.336;3.536;2022-08-03T09:56:08;7.05;;;1.50;;
60006;SDS011;45863;50.336;3.536;2022-08-03T09:58:33;6.35;;;1.42;;
60006;SDS011;45863;50.336;3.536;2022-08-03T10:01:08;9.50;;;1.63;;
60006;SDS011;45863;50.336;3.536;2022-08-03T10:03:34;4.43;;;1.48;;
60006;SDS011;45863;50.336;3.536;2022-08-03T10:06:16;8.93;;;1.90;;
60006;SDS011;45863;50.336;3.536;2022-08-03T10:08:43;5.88;;;1.83;;
60006;SDS011;45863;50.336;3.536;2022-08-03T10:11:08;6.82;;;1.48;;
60006;SDS011;45863;50.336;3.536;2022-08-03T10:13:33;5.97;;;1.50;;
60006;SDS011;45863;50.336;3.536;2022-08-03T10:16:00;3.85;;;1.55;;
60006;SDS011;45863;50.336;3.536;2022-08-03T10:18:25;3.13;;;1.08;;
60006;SDS011;45863;50.336;3.536;2022-08-03T10:20:52;7.97;;;1.52;;
60006;SDS011;45863;50.336;3.536;2022-08-03T10:23:18;7.93;;;2.08;;
60006;SDS011;45863;50.336;3.536;2022-08-03T10:25:48;6.15;;;1.95;;
60006;SDS011;45863;50.336;3.536;2022-08-03T10:28:17;7.35;;;1.90;;
60006;SDS011;45863;50.336;3.536;2022-08-03T10:30:47;6.63;;;1.60;;
60006;SDS011;45863;50.336;3.536;2022-08-03T10:33:26;6.35;;;1.90;;
60006;SDS011;45863;50.336;3.536;2022-08-03T10:35:53;5.82;;;1.25;;
60006;SDS011;45863;50.336;3.536;2022-08-03T10:38:22;7.68;;;1.48;;
60006;SDS011;45863;50.336;3.536;2022-08-03T10:40:49;7.53;;;1.65;;
60006;SDS011;45863;50.336;3.536;2022-08-03T10:43:19;6.65;;;1.73;;
60006;SDS011;45863;50.336;3.536;2022-08-03T10:45:46;6.38;;;1.48;;
60006;SDS011;45863;50.336;3.536;2022-08-03T10:48:12;3.35;;;1.35;;
60006;SDS011;45863;50.336;3.536;2022-08-03T10:50:37;5.38;;;1.58;;
60006;SDS011;45863;50.336;3.536;2022-08-03T10:53:04;5.07;;;1.50;;
60006;SDS011;45863;50.336;3.536;2022-08-03T10:55:33;6.63;;;1.42;;
60006;SDS011;45863;50.336;3.536;2022-08-03T11:01:01;5.78;;;1.42;;
60006;SDS011;45863;50.336;3.536;2022-08-03T11:03:26;6.03;;;1.90;;
60006;SDS011;45863;50.336;3.536;2022-08-03T11:05:51;4.57;;;1.50;;
60006;SDS011;45863;50.336;3.536;2022-08-03T11:10:48;5.40;;;1.70;;
60006;SDS011;45863;50.336;3.536;2022-08-03T11:13:14;5.97;;;1.60;;
60006;SDS011;45863;50.336;3.536;2022-08-03T11:15:39;4.30;;;1.60;;
60006;SDS011;45863;50.336;3.536;2022-08-03T11:18:07;6.28;;;1.55;;
60006;SDS011;45863;50.336;3.536;2022-08-03T11:20:42;8.20;;;2.08;;
60006;SDS011;45863;50.336;3.536;2022-08-03T11:23:08;9.10;;;1.90;;
60006;SDS011;45863;50.336;3.536;2022-08-03T11:26:06;8.20;;;1.70;;
60006;SDS011;45863;50.336;3.536;2022-08-03T11:28:25;6.10;;;1.90;;
60006;SDS011;45863;50.336;3.536;2022-08-03T11:30:53;6.97;;;1.73;;
60006;SDS011;45863;50.336;3.536;2022-08-03T11:33:28;3.80;;;1.63;;
60006;SDS011;45863;50.336;3.536;2022-08-03T11:35:58;9.40;;;2.35;;
60006;SDS011;45863;50.336;3.536;2022-08-03T11:38:23;5.97;;;1.95;;
60006;SDS011;45863;50.336;3.536;2022-08-03T11:40:51;3.63;;;1.30;;
60006;SDS011;45863;50.336;3.536;2022-08-03T11:46:04;7.13;;;1.50;;
60006;SDS011;45863;50.336;3.536;2022-08-03T11:48:33;5.72;;;1.42;;
60006;SDS011;45863;50.336;3.536;2022-08-03T11:51:02;6.70;;;1.67;;
60006;SDS011;45863;50.336;3.536;2022-08-03T11:53:28;4.22;;;1.30;;
60006;SDS011;45863;50.336;3.536;2022-08-03T11:55:56;8.82;;;2.08;;
60006;SDS011;45863;50.336;3.536;2022-08-03T11:58:22;6.53;;;1.80;;
60006;SDS011;45863;50.336;3.536;2022-08-03T12:00:48;4.45;;;1.73;;
60006;SDS011;45863;50.336;3.536;2022-08-03T12:03:14;4.65;;;1.83;;
60006;SDS011;45863;50.336;3.536;2022-08-03T12:08:05;5.10;;;1.80;;
60006;SDS011;45863;50.336;3.536;2022-08-03T12:10:31;11.20;;;2.00;;
60006;SDS011;45863;50.336;3.536;2022-08-03T12:12:57;5.13;;;2.25;;
60006;SDS011;45863;50.336;3.536;2022-08-03T12:15:29;6.82;;;1.98;;
60006;SDS011;45863;50.336;3.536;2022-08-03T12:17:55;8.75;;;2.70;;
60006;SDS011;45863;50.336;3.536;2022-08-03T12:20:25;6.35;;;1.98;;
60006;SDS011;45863;50.336;3.536;2022-08-03T12:22:50;6.15;;;2.08;;
60006;SDS011;45863;50.336;3.536;2022-08-03T12:25:23;8.27;;;2.10;;
60006;SDS011;45863;50.336;3.536;2022-08-03T12:27:49;6.07;;;2.50;;
60006;SDS011;45863;50.336;3.536;2022-08-03T12:30:14;7.03;;;2.33;;
60006;SDS011;45863;50.336;3.536;2022-08-03T12:32:41;12.00;;;2.60;;
60006;SDS011;45863;50.336;3.536;2022-08-03T12:35:06;5.97;;;2.60;;
60006;SDS011;45863;50.336;3.536;2022-08-03T12:37:32;5.63;;;2.55;;
60006;SDS011;45863;50.336;3.536;2022-08-03T12:39:59;5.10;;;1.80;;
60006;SDS011;45863;50.336;3.536;2022-08-03T12:42:35;5.07;;;1.80;;
60006;SDS011;45863;50.336;3.536;2022-08-03T12:47:51;6.00;;;1.95;;
60006;SDS011;45863;50.336;3.536;2022-08-03T12:50:27;5.70;;;2.03;;
60006;SDS011;45863;50.336;3.536;2022-08-03T12:52:52;6.63;;;1.85;;
60006;SDS011;45863;50.336;3.536;2022-08-03T12:55:18;5.72;;;1.98;;
60006;SDS011;45863;50.336;3.536;2022-08-03T12:57:44;11.40;;;2.17;;
60006;SDS011;45863;50.336;3.536;2022-08-03T13:00:09;6.03;;;1.70;;
60006;SDS011;45863;50.336;3.536;2022-08-03T13:02:35;4.35;;;1.85;;
60006;SDS011;45863;50.336;3.536;2022-08-03T13:05:00;4.40;;;1.90;;
60006;SDS011;45863;50.336;3.536;2022-08-03T13:07:39;7.50;;;1.98;;
60006;SDS011;45863;50.336;3.536;2022-08-03T13:10:05;5.10;;;2.22;;
60006;SDS011;45863;50.336;3.536;2022-08-03T13:12:30;4.97;;;2.58;;
60006;SDS011;45863;50.336;3.536;2022-08-03T13:14:57;5.72;;;2.35;;
60006;SDS011;45863;50.336;3.536;2022-08-03T13:17:23;5.05;;;2.38;;
60006;SDS011;45863;50.336;3.536;2022-08-03T13:19:48;5.60;;;2.33;;
60006;SDS011;45863;50.336;3.536;2022-08-03T13:24:39;5.13;;;1.70;;
60006;SDS011;45863;50.336;3.536;2022-08-03T13:27:05;6.78;;;1.67;;
60006;SDS011;45863;50.336;3.536;2022-08-03T13:29:31;7.05;;;1.80;;
60006;SDS011;45863;50.336;3.536;2022-08-03T13:31:56;5.82;;;1.80;;
60006;SDS011;45863;50.336;3.536;2022-08-03T13:34:22;4.57;;;1.80;;
60006;SDS011;45863;50.336;3.536;2022-08-03T13:36:47;5.97;;;1.73;;
60006;SDS011;45863;50.336;3.536;2022-08-03T13:39:12;3.33;;;1.50;;
60006;SDS011;45863;50.336;3.536;2022-08-03T13:41:37;7.97;;;1.73;;
60006;SDS011;45863;50.336;3.536;2022-08-03T13:44:02;6.27;;;1.70;;
60006;SDS011;45863;50.336;3.536;2022-08-03T13:46:28;5.17;;;1.57;;
60006;SDS011;45863;50.336;3.536;2022-08-03T13:48:53;4.27;;;1.60;;
60006;SDS011;45863;50.336;3.536;2022-08-03T13:51:18;5.57;;;1.40;;
60006;SDS011;45863;50.336;3.536;2022-08-03T13:53:43;4.70;;;1.57;;
60006;SDS011;45863;50.336;3.536;2022-08-03T13:56:08;8.10;;;1.80;;
60006;SDS011;45863;50.336;3.536;2022-08-03T13:58:33;4.80;;;1.83;;
60006;SDS011;45863;50.336;3.536;2022-08-03T14:00:59;8.40;;;1.77;;
60006;SDS011;45863;50.336;3.536;2022-08-03T14:03:24;5.93;;;2.00;;
60006;SDS011;45863;50.336;3.536;2022-08-03T14:05:49;7.57;;;1.90;;
60006;SDS011;45863;50.336;3.536;2022-08-03T14:08:14;4.20;;;1.70;;
60006;SDS011;45863;50.336;3.536;2022-08-03T14:10:40;4.43;;;1.50;;
60006;SDS011;45863;50.336;3.536;2022-08-03T14:13:06;6.22;;;1.38;;
60006;SDS011;45863;50.336;3.536;2022-08-03T14:15:31;4.27;;;1.60;;
60006;SDS011;45863;50.336;3.536;2022-08-03T14:17:56;6.23;;;1.80;;
60006;SDS011;45863;50.336;3.536;2022-08-03T14:20:22;7.80;;;2.20;;
60006;SDS011;45863;50.336;3.536;2022-08-03T14:22:47;8.57;;;1.60;;
60006;SDS011;45863;50.336;3.536;2022-08-03T14:25:12;3.33;;;1.40;;
60006;SDS011;45863;50.336;3.536;2022-08-03T14:27:37;6.47;;;1.63;;
60006;SDS011;45863;50.336;3.536;2022-08-03T14:30:03;5.83;;;1.60;;
60006;SDS011;45863;50.336;3.536;2022-08-03T14:32:28;6.75;;;1.50;;
60006;SDS011;45863;50.336;3.536;2022-08-03T14:34:53;7.20;;;1.90;;
60006;SDS011;45863;50.336;3.536;2022-08-03T14:37:19;5.63;;;1.67;;
60006;SDS011;45863;50.336;3.536;2022-08-03T14:39:44;5.33;;;2.00;;
60006;SDS011;45863;50.336;3.536;2022-08-03T14:42:10;5.72;;;1.60;;
60006;SDS011;45863;50.336;3.536;2022-08-03T14:44:36;4.20;;;1.57;;
60006;SDS011;45863;50.336;3.536;2022-08-03T14:47:01;6.30;;;1.93;;
60006;SDS011;45863;50.336;3.536;2022-08-03T14:49:26;4.20;;;1.80;;
60006;SDS011;45863;50.336;3.536;2022-08-03T14:51:51;7.07;;;2.17;;
60006;SDS011;45863;50.336;3.536;2022-08-03T14:54:16;9.47;;;1.87;;
60006;SDS011;45863;50.336;3.536;2022-08-03T14:56:42;5.03;;;1.83;;
60006;SDS011;45863;50.336;3.536;2022-08-03T14:59:07;6.57;;;1.70;;
60006;SDS011;45863;50.336;3.536;2022-08-03T15:01:32;7.17;;;1.87;;
60006;SDS011;45863;50.336;3.536;2022-08-03T15:03:57;5.27;;;1.87;;
60006;SDS011;45863;50.336;3.536;2022-08-03T15:06:23;5.82;;;1.98;;
60006;SDS011;45863;50.336;3.536;2022-08-03T15:08:48;7.20;;;2.00;;
60006;SDS011;45863;50.336;3.536;2022-08-03T15:11:13;7.03;;;1.87;;